createdAt,value
2019-03-15T00:01:42.615Z,100030.13
2019-03-15T00:04:11.546Z,100042.98
2019-03-15T00:06:40.423Z,100048.58
2019-03-15T00:09:09.344Z,100040.14
2019-03-15T00:11:38.269Z,100043.96
2019-03-15T00:14:07.147Z,100039.06
2019-03-15T00:16:36.036Z,100051.45
2019-03-15T00:19:05.046Z,100060.84
2019-03-15T00:21:33.917Z,100073.97
2019-03-15T00:24:02.812Z,100066.64
2019-03-15T00:26:31.687Z,100070.06
2019-03-15T00:29:00.594Z,100067.86
2019-03-15T00:31:29.499Z,100071.19
2019-03-15T00:33:58.377Z,100069.15
2019-03-15T00:36:27.272Z,100073.95
2019-03-15T00:38:56.154Z,100081.55
2019-03-15T00:41:25.067Z,100085.00
2019-03-15T00:43:53.939Z,100079.33
2019-03-15T00:46:22.910Z,100079.59
2019-03-15T00:48:51.726Z,100075.64
2019-03-15T00:51:20.608Z,100080.22
2019-03-15T00:53:49.484Z,100083.63
2019-03-15T00:56:18.382Z,100077.03
2019-03-15T00:58:47.264Z,100078.73
2019-03-15T01:01:16.165Z,100074.47
2019-03-15T01:03:45.034Z,100076.52
2019-03-15T01:06:13.924Z,100086.80
2019-03-15T01:08:42.838Z,100073.61
2019-03-15T01:11:11.746Z,100077.50
2019-03-15T01:13:40.621Z,100072.79
2019-03-15T01:16:09.539Z,100077.80
2019-03-15T01:18:38.420Z,100081.54
2019-03-15T01:21:07.328Z,100084.53
2019-03-15T01:23:36.197Z,100080.65
2019-03-15T01:26:05.082Z,100080.29
2019-03-15T01:28:33.979Z,100081.86
2019-03-15T01:31:02.847Z,100083.22
2019-03-15T01:33:31.736Z,100079.92
2019-03-15T01:36:00.652Z,100078.13
2019-03-15T01:38:29.564Z,100079.53
2019-03-15T01:40:58.411Z,100072.36
2019-03-15T01:43:27.311Z,100068.28
2019-03-15T01:45:56.200Z,100067.59
2019-03-15T01:48:25.093Z,100068.91
2019-03-15T01:50:53.995Z,100075.15
2019-03-15T01:53:23.524Z,100069.09
2019-03-15T01:55:51.765Z,100060.87
2019-03-15T01:58:20.648Z,100064.23
2019-03-15T02:00:49.541Z,100059.02
2019-03-15T02:03:18.426Z,100054.13
2019-03-15T02:05:47.334Z,100049.88
2019-03-15T02:08:16.205Z,100052.48
2019-03-15T02:10:45.106Z,100055.79
2019-03-15T02:13:13.989Z,100049.05
2019-03-15T02:15:43.469Z,100043.55
2019-03-15T02:18:11.763Z,100040.31
2019-03-15T02:20:40.672Z,100044.52
2019-03-15T02:23:09.616Z,100040.98
2019-03-15T02:25:38.476Z,100032.16
2019-03-15T02:28:07.420Z,100037.11
2019-03-15T02:30:36.300Z,100031.53
2019-03-15T02:33:06.012Z,100034.36
2019-03-15T02:35:34.054Z,100026.99
2019-03-15T02:38:02.942Z,100023.33
2019-03-15T02:40:31.807Z,100024.36
2019-03-15T02:43:00.717Z,100029.70
2019-03-15T02:45:29.579Z,100021.61
2019-03-15T02:47:58.497Z,100015.01
2019-03-15T02:50:29.091Z,100009.17
2019-03-15T02:52:56.234Z,99990.11
2019-03-15T02:55:25.127Z,99990.11
2019-03-15T02:57:53.996Z,99992.37
2019-03-15T03:00:22.878Z,99990.61
2019-03-15T03:02:51.899Z,99986.39
2019-03-15T03:05:20.621Z,99977.63
2019-03-15T03:07:49.507Z,99978.89
2019-03-15T03:10:18.380Z,99985.13
2019-03-15T03:12:47.279Z,99990.39
2019-03-15T03:15:16.195Z,99984.14
2019-03-15T03:17:45.037Z,99981.00
2019-03-15T03:20:13.974Z,99970.66
2019-03-15T03:22:42.814Z,99976.46
2019-03-15T03:25:11.725Z,99971.92
2019-03-15T03:27:40.608Z,99961.81
2019-03-15T03:30:09.524Z,99956.96
2019-03-15T03:32:38.390Z,99952.64
2019-03-15T03:35:09.584Z,99958.88
2019-03-15T03:37:36.238Z,99952.70
2019-03-15T03:40:05.503Z,99952.55
2019-03-15T03:42:34.433Z,99952.02
2019-03-15T03:45:03.264Z,99958.53
2019-03-15T03:47:32.810Z,99948.82
2019-03-15T03:50:01.014Z,99955.56
2019-03-15T03:52:29.897Z,99961.45
2019-03-15T03:54:58.771Z,99952.87
2019-03-15T03:57:27.654Z,99951.21
2019-03-15T03:59:56.517Z,99949.73
2019-03-15T04:02:25.450Z,99948.61
2019-03-15T04:04:54.331Z,99940.37
2019-03-15T04:07:23.665Z,99950.45
2019-03-15T04:09:52.535Z,99945.69
2019-03-15T04:12:21.413Z,99940.06
2019-03-15T04:14:50.276Z,99936.47
2019-03-15T04:17:19.150Z,99925.91
2019-03-15T04:19:48.055Z,99926.90
2019-03-15T04:22:16.933Z,99930.00
2019-03-15T04:24:45.826Z,99918.33
2019-03-15T04:27:14.714Z,99920.30
2019-03-15T04:29:43.597Z,99917.03
2019-03-15T04:32:12.498Z,99919.17
2019-03-15T04:34:41.404Z,99905.52
2019-03-15T04:37:10.272Z,99900.56
2019-03-15T04:39:39.164Z,99893.39
2019-03-15T04:42:08.078Z,99893.33
2019-03-15T04:44:36.962Z,99890.99
2019-03-15T04:47:05.880Z,99882.61
2019-03-15T04:49:34.746Z,99881.21
2019-03-15T04:52:03.657Z,99884.90
2019-03-15T04:54:32.533Z,99880.77
2019-03-15T04:57:01.428Z,99871.78
2019-03-15T04:59:30.313Z,99870.84
2019-03-15T05:01:59.217Z,99869.94
2019-03-15T05:04:28.087Z,99871.20
2019-03-15T05:06:56.960Z,99871.14
2019-03-15T05:09:25.861Z,99867.08
2019-03-15T05:11:54.761Z,99863.39
2019-03-15T05:14:23.655Z,99861.34
2019-03-15T05:16:52.518Z,99851.61
2019-03-15T05:19:21.431Z,99849.98
2019-03-15T05:21:50.318Z,99846.52
2019-03-15T05:24:19.216Z,99844.87
2019-03-15T05:26:48.085Z,99845.08
2019-03-15T05:29:16.960Z,99842.88
2019-03-15T05:31:45.834Z,99839.83
2019-03-15T05:34:14.723Z,99841.75
2019-03-15T05:36:43.628Z,99838.98
2019-03-15T05:39:12.494Z,99844.03
2019-03-15T05:41:41.388Z,99837.45
2019-03-15T05:44:10.276Z,99834.23
2019-03-15T05:46:39.174Z,99836.36
2019-03-15T05:49:08.147Z,99833.27
2019-03-15T05:51:37.051Z,99826.07
2019-03-15T05:54:05.917Z,99814.08
2019-03-15T05:56:34.795Z,99817.41
2019-03-15T05:59:03.684Z,99823.59
2019-03-15T06:01:32.564Z,99818.44
2019-03-15T06:04:01.462Z,99818.13
2019-03-15T06:06:30.323Z,99819.25
2019-03-15T06:08:59.188Z,99814.30
2019-03-15T06:11:28.076Z,99815.86
2019-03-15T06:13:56.984Z,99816.66
2019-03-15T06:16:25.870Z,99805.45
2019-03-15T06:18:54.748Z,99806.13
2019-03-15T06:21:23.617Z,99802.69
2019-03-15T06:23:52.519Z,99799.49
2019-03-15T06:26:21.391Z,99802.83
2019-03-15T06:28:50.268Z,99795.95
2019-03-15T06:31:19.114Z,99797.53
2019-03-15T06:33:48.019Z,99793.17
2019-03-15T06:36:16.897Z,99786.09
2019-03-15T06:38:45.781Z,99783.17
2019-03-15T06:41:14.700Z,99779.63
2019-03-15T06:43:43.533Z,99786.81
2019-03-15T06:46:12.421Z,99779.37
2019-03-15T06:48:44.638Z,99773.80
2019-03-15T06:51:10.266Z,99786.89
2019-03-15T06:53:39.177Z,99773.94
2019-03-15T06:56:08.178Z,99774.83
2019-03-15T06:58:37.112Z,99777.70
2019-03-15T07:01:06.047Z,99774.80
2019-03-15T07:03:34.979Z,99765.80
2019-03-15T07:06:03.976Z,99749.39
2019-03-15T07:08:32.849Z,99755.97
2019-03-15T07:11:01.719Z,99751.84
2019-03-15T07:13:30.616Z,99743.48
2019-03-15T07:15:59.530Z,99741.78
2019-03-15T07:18:28.434Z,99744.89
2019-03-15T07:20:57.338Z,99739.51
2019-03-15T07:23:26.281Z,99719.86
2019-03-15T07:25:55.136Z,99722.48
2019-03-15T07:28:24.050Z,99713.12
2019-03-15T07:30:53.012Z,99714.39
2019-03-15T07:33:23.219Z,99718.39
2019-03-15T07:35:50.783Z,99701.63
2019-03-15T07:38:19.676Z,99693.55
2019-03-15T07:40:48.577Z,99696.72
2019-03-15T07:43:19.895Z,99691.09
2019-03-15T07:45:46.351Z,99699.58
2019-03-15T07:48:22.466Z,99703.94
2019-03-15T07:50:44.130Z,99706.77
2019-03-15T07:53:13.094Z,99704.68
2019-03-15T07:55:41.915Z,99699.91
2019-03-15T07:58:10.802Z,99683.80
2019-03-15T08:00:39.670Z,99678.17
2019-03-15T08:03:08.731Z,99681.53
2019-03-15T08:05:38.220Z,99678.98
2019-03-15T08:08:06.801Z,99675.25
2019-03-15T08:10:35.635Z,99669.71
2019-03-15T08:13:04.528Z,99674.46
2019-03-15T08:15:33.425Z,99677.70
2019-03-15T08:18:02.319Z,99658.56
2019-03-15T08:20:31.225Z,99668.17
2019-03-15T08:23:00.067Z,99675.41
2019-03-15T08:25:28.935Z,99653.42
2019-03-15T08:27:58.052Z,99655.63
2019-03-15T08:30:26.920Z,99652.47
2019-03-15T08:33:09.249Z,99653.60
2019-03-15T08:35:24.860Z,99648.33
2019-03-15T08:37:53.637Z,99658.08
2019-03-15T08:40:25.652Z,99659.91
2019-03-15T08:42:51.446Z,99644.27
2019-03-15T08:45:20.330Z,99650.22
2019-03-15T08:47:49.215Z,99656.69
2019-03-15T08:50:18.079Z,99637.38
2019-03-15T08:52:46.964Z,99637.92
2019-03-15T08:55:15.841Z,99644.48
2019-03-15T08:57:44.723Z,99648.89
2019-03-15T09:00:13.693Z,99658.09
2019-03-15T09:02:42.569Z,99637.88
2019-03-15T09:05:11.487Z,99642.97
2019-03-15T09:07:40.364Z,99639.66
2019-03-15T09:10:21.840Z,99640.89
2019-03-15T09:12:38.630Z,99631.69
2019-03-15T09:15:07.703Z,99640.68
2019-03-15T09:17:36.603Z,99637.16
2019-03-15T09:20:05.543Z,99653.28
2019-03-15T09:22:37.776Z,99654.34
2019-03-15T09:25:03.841Z,99648.79
2019-03-15T09:27:32.771Z,99656.80
2019-03-15T09:30:01.733Z,99645.31
2019-03-15T09:32:30.507Z,99643.13
2019-03-15T09:34:59.413Z,99641.25
2019-03-15T09:37:28.277Z,99642.63
2019-03-15T09:39:57.169Z,99659.23
2019-03-15T09:42:26.066Z,99658.91
2019-03-15T09:44:54.979Z,99654.34
2019-03-15T09:47:23.874Z,99646.56
2019-03-15T09:49:52.782Z,99672.62
2019-03-15T09:52:21.695Z,99659.39
2019-03-15T09:54:50.573Z,99659.23
2019-03-15T09:57:19.462Z,99669.22
2019-03-15T09:59:48.381Z,99667.48
2019-03-15T10:02:29.323Z,99672.37
2019-03-15T10:04:46.139Z,99668.30
2019-03-15T10:07:15.232Z,99670.31
2019-03-15T10:09:46.093Z,99678.79
2019-03-15T10:12:12.942Z,99676.64
2019-03-15T10:14:41.848Z,99684.28
2019-03-15T10:17:10.746Z,99677.20
2019-03-15T10:19:39.634Z,99682.66
2019-03-15T10:22:08.741Z,99668.24
2019-03-15T10:24:37.651Z,99672.14
2019-03-15T10:27:06.613Z,99676.25
2019-03-15T10:29:35.545Z,99675.63
2019-03-15T10:32:04.478Z,99681.35
2019-03-15T10:34:35.653Z,99682.19
2019-03-15T10:37:02.320Z,99691.93
2019-03-15T10:39:31.215Z,99690.69
2019-03-15T10:42:00.097Z,99694.41
2019-03-15T10:44:28.996Z,99692.51
2019-03-15T10:46:57.882Z,99688.48
2019-03-15T10:49:26.759Z,99709.13
2019-03-15T10:51:55.644Z,99706.75
2019-03-15T10:54:24.566Z,99706.77
2019-03-15T10:56:53.485Z,99699.73
2019-03-15T10:59:22.344Z,99703.48
2019-03-15T11:01:51.231Z,99697.53
2019-03-15T11:04:20.102Z,99706.54
2019-03-15T11:06:48.987Z,99715.23
2019-03-15T11:09:17.857Z,99732.21
2019-03-15T11:11:46.727Z,99731.48
2019-03-15T11:14:15.657Z,99722.58
2019-03-15T11:16:44.577Z,99726.14
2019-03-15T11:19:15.662Z,99713.11
2019-03-15T11:21:42.367Z,99705.05
2019-03-15T11:24:11.248Z,99723.97
2019-03-15T11:26:40.122Z,99684.23
2019-03-15T11:29:09.072Z,99727.37
2019-03-15T11:31:37.928Z,99719.86
2019-03-15T11:34:07.011Z,99726.10
2019-03-15T11:36:35.889Z,99714.05
2019-03-15T11:39:07.347Z,99726.23
2019-03-15T11:41:36.255Z,99714.44
2019-03-15T11:44:05.284Z,99709.68
2019-03-15T11:46:34.144Z,99702.94
2019-03-15T11:49:03.018Z,99706.67
2019-03-15T11:51:31.912Z,99712.34
2019-03-15T11:54:00.806Z,99709.72
2019-03-15T11:56:29.694Z,99713.08
2019-03-15T11:58:58.605Z,99698.69
2019-03-15T12:01:27.459Z,99703.23
2019-03-15T12:03:56.374Z,99713.80
2019-03-15T12:06:25.303Z,99728.72
2019-03-15T12:08:54.173Z,99725.13
2019-03-15T12:11:23.058Z,99724.28
2019-03-15T12:13:51.930Z,99732.77
2019-03-15T12:16:20.821Z,99719.47
2019-03-15T12:18:49.738Z,99718.36
2019-03-15T12:21:18.630Z,99708.97
2019-03-15T12:23:47.492Z,99718.36
2019-03-15T12:26:16.429Z,99717.80
2019-03-15T12:28:45.303Z,99715.41
2019-03-15T12:31:14.179Z,99718.86
2019-03-15T12:33:43.042Z,99709.92
2019-03-15T12:36:11.940Z,99706.19
2019-03-15T12:38:40.828Z,99710.89
2019-03-15T12:41:09.826Z,99691.41
2019-03-15T12:43:38.709Z,99689.20
2019-03-15T12:46:07.782Z,99664.67
2019-03-15T12:48:36.673Z,99695.84
2019-03-15T12:51:05.607Z,99656.89
2019-03-15T12:53:34.495Z,99692.95
2019-03-15T12:56:03.472Z,99694.53
2019-03-15T12:58:32.300Z,99687.38
2019-03-15T13:01:01.187Z,99682.16
2019-03-15T13:03:30.056Z,99696.39
2019-03-15T13:05:58.971Z,99691.68
2019-03-15T13:08:27.838Z,99715.41
2019-03-15T13:10:56.733Z,99707.47
2019-03-15T13:13:25.610Z,99732.52
2019-03-15T13:15:54.498Z,99718.86
2019-03-15T13:18:23.387Z,99700.77
2019-03-15T13:20:52.257Z,99707.21
2019-03-15T13:23:21.149Z,99705.05
2019-03-15T13:25:50.019Z,99710.87
2019-03-15T13:28:18.904Z,99719.25
2019-03-15T13:30:47.768Z,99706.33
2019-03-15T13:33:20.887Z,99720.03
2019-03-15T13:35:45.556Z,99708.36
2019-03-15T13:38:14.431Z,99712.27
2019-03-15T13:40:43.309Z,99723.94
2019-03-15T13:43:12.213Z,99725.84
2019-03-15T13:45:41.117Z,99725.16
2019-03-15T13:48:10.182Z,99715.83
2019-03-15T13:50:39.049Z,99717.90
2019-03-15T13:53:08.007Z,99723.98
2019-03-15T13:55:36.880Z,99725.03
2019-03-15T13:58:05.789Z,99710.57
2019-03-15T14:00:34.695Z,99732.63
2019-03-15T14:03:03.553Z,99730.94
2019-03-15T14:05:32.489Z,99742.84
2019-03-15T14:08:11.080Z,99739.41
2019-03-15T14:10:30.204Z,99748.20
2019-03-15T14:12:59.151Z,99747.55
2019-03-15T14:15:28.908Z,99744.33
2019-03-15T14:17:57.807Z,99751.80
2019-03-15T14:20:26.692Z,99741.59
2019-03-15T14:22:55.576Z,99754.66
2019-03-15T14:25:24.496Z,99751.77
2019-03-15T14:27:53.380Z,99767.41
2019-03-15T14:30:22.247Z,99757.06
2019-03-15T14:32:51.149Z,99763.00
2019-03-15T14:35:20.030Z,99767.23
2019-03-15T14:37:49.089Z,99771.48
2019-03-15T14:40:17.800Z,99793.20
2019-03-15T14:42:47.009Z,99778.77
2019-03-15T14:45:15.798Z,99782.23
2019-03-15T14:47:44.486Z,99777.22
2019-03-15T14:50:13.396Z,99796.02
2019-03-15T14:52:42.279Z,99788.41
2019-03-15T14:55:11.193Z,99805.25
2019-03-15T14:57:51.082Z,99795.41
2019-03-15T15:00:11.220Z,99786.58
2019-03-15T15:02:39.611Z,99793.91
2019-03-15T15:05:09.820Z,99803.58
2019-03-15T15:07:38.690Z,99792.20
2019-03-15T15:10:08.550Z,99810.02
2019-03-15T15:12:37.417Z,99812.56
2019-03-15T15:15:08.101Z,99814.42
2019-03-15T15:17:36.991Z,99804.25
2019-03-15T15:20:06.046Z,99814.25
2019-03-15T15:22:34.939Z,99813.91
2019-03-15T15:25:03.910Z,99817.98
2019-03-15T15:27:32.796Z,99822.02
2019-03-15T15:30:01.693Z,99828.17
2019-03-15T15:32:30.585Z,99830.39
2019-03-15T15:34:59.474Z,99836.15
2019-03-15T15:37:28.386Z,99844.80
2019-03-15T15:40:00.031Z,99846.50
2019-03-15T15:42:26.168Z,99855.83
2019-03-15T15:44:55.562Z,99839.55
2019-03-15T15:47:24.450Z,99853.98
2019-03-15T15:49:53.344Z,99853.25
2019-03-15T15:52:22.309Z,99861.39
2019-03-15T15:54:51.258Z,99866.47
2019-03-15T15:57:20.116Z,99880.03
2019-03-15T15:59:49.039Z,99862.08
2019-03-15T16:02:17.913Z,99854.97
2019-03-15T16:04:46.830Z,99873.59
2019-03-15T16:07:15.679Z,99859.88
2019-03-15T16:09:44.586Z,99874.13
2019-03-15T16:12:13.467Z,99870.89
2019-03-15T16:14:42.354Z,99868.86
2019-03-15T16:17:11.220Z,99865.95
2019-03-15T16:19:40.097Z,99878.67
2019-03-15T16:22:09.032Z,99875.09
2019-03-15T16:24:37.935Z,99879.89
2019-03-15T16:27:06.997Z,99885.29
2019-03-15T16:29:35.916Z,99893.06
2019-03-15T16:32:04.812Z,99908.70
2019-03-15T16:34:33.691Z,99901.23
2019-03-15T16:37:02.625Z,99880.05
2019-03-15T16:39:31.470Z,99883.59
2019-03-15T16:42:00.388Z,99894.77
2019-03-15T16:44:29.283Z,99902.20
2019-03-15T16:46:58.164Z,99907.48
2019-03-15T16:49:27.061Z,99915.24
2019-03-15T16:51:55.942Z,99922.37
2019-03-15T16:54:24.802Z,99921.69
2019-03-15T16:56:53.684Z,99924.91
2019-03-15T16:59:22.577Z,99922.67
2019-03-15T17:01:54.160Z,99924.35
2019-03-15T17:04:20.358Z,99940.59
2019-03-15T17:06:49.249Z,99942.45
2019-03-15T17:09:18.128Z,99933.81
2019-03-15T17:11:47.014Z,99942.73
2019-03-15T17:14:25.030Z,99946.08
2019-03-15T17:16:44.747Z,99966.20
2019-03-15T17:19:13.617Z,99968.37
2019-03-15T17:21:42.516Z,99973.55
2019-03-15T17:24:11.457Z,99968.99
2019-03-15T17:26:40.349Z,99983.22
2019-03-15T17:29:09.366Z,99980.94
2019-03-15T17:31:38.250Z,99984.48
2019-03-15T17:34:07.218Z,99978.53
2019-03-15T17:36:36.122Z,99982.39
2019-03-15T17:39:06.884Z,99990.12
2019-03-15T17:41:35.795Z,100000.44
2019-03-15T17:44:04.677Z,99996.22
2019-03-15T17:46:33.558Z,100000.64
2019-03-15T17:49:02.484Z,100012.92
2019-03-15T17:51:31.350Z,100024.55
2019-03-15T17:54:00.246Z,100031.67
2019-03-15T17:56:29.127Z,100037.08
2019-03-15T17:59:11.532Z,100036.23
2019-03-15T18:01:26.941Z,100040.63
2019-03-15T18:03:55.946Z,100039.72
2019-03-15T18:06:24.800Z,100053.20
2019-03-15T18:08:53.704Z,100049.95
2019-03-15T18:11:22.571Z,100056.66
2019-03-15T18:13:51.680Z,100060.77
2019-03-15T18:16:20.596Z,100064.27
2019-03-15T18:18:50.411Z,100074.45
2019-03-15T18:21:19.256Z,100075.73
2019-03-15T18:23:48.136Z,100085.70
2019-03-15T18:26:17.083Z,100082.91
2019-03-15T18:28:46.075Z,100082.08
2019-03-15T18:31:15.001Z,100084.28
2019-03-15T18:33:43.861Z,100090.53
2019-03-15T18:36:12.747Z,100094.16
2019-03-15T18:38:41.656Z,100097.64
2019-03-15T18:41:10.698Z,100096.38
2019-03-15T18:43:42.678Z,100101.41
2019-03-15T18:46:11.592Z,100103.00
2019-03-15T18:48:40.469Z,100106.67
2019-03-15T18:51:09.460Z,100117.28
2019-03-15T18:53:38.343Z,100116.38
2019-03-15T18:56:07.410Z,100115.99
2019-03-15T18:58:36.276Z,100115.58
2019-03-15T19:01:05.244Z,100123.98
2019-03-15T19:03:34.129Z,100119.63
2019-03-15T19:06:03.304Z,100106.62
2019-03-15T19:08:32.193Z,100112.03
2019-03-15T19:11:01.096Z,100124.52
2019-03-15T19:13:29.967Z,100131.01
2019-03-15T19:15:58.863Z,100138.09
2019-03-15T19:18:27.737Z,100144.52
2019-03-15T19:20:56.609Z,100152.95
2019-03-15T19:23:25.806Z,100148.86
2019-03-15T19:25:54.927Z,100162.02
2019-03-15T19:28:27.188Z,100160.49
2019-03-15T19:30:56.385Z,100159.22
2019-03-15T19:33:25.620Z,100171.98
2019-03-15T19:35:56.938Z,100173.69
2019-03-15T19:38:26.177Z,100195.06
2019-03-15T19:40:59.420Z,100202.14
2019-03-15T19:43:30.347Z,100194.20
2019-03-15T19:45:59.398Z,100194.25
2019-03-15T19:48:28.584Z,100195.48
2019-03-15T19:50:58.241Z,100192.50
2019-03-15T19:53:27.865Z,100189.15
2019-03-15T19:55:59.961Z,100182.56
2019-03-15T19:58:29.925Z,100182.91
2019-03-15T20:00:59.087Z,100196.00
2019-03-15T20:03:43.269Z,100203.33
2019-03-15T20:06:04.570Z,100205.96
2019-03-15T20:08:32.240Z,100211.52
2019-03-15T20:11:01.694Z,100212.11
2019-03-15T20:13:31.418Z,100216.30
2019-03-15T20:16:00.641Z,100220.35
2019-03-15T20:18:29.732Z,100221.84
2019-03-15T20:20:58.945Z,100206.58
2019-03-15T20:23:30.082Z,100207.84
2019-03-15T20:25:59.766Z,100214.81
2019-03-15T20:28:28.704Z,100212.17
2019-03-15T20:31:06.440Z,100211.31
2019-03-15T20:33:33.079Z,100212.89
2019-03-15T20:36:03.908Z,100212.89
2019-03-15T20:38:34.791Z,100221.62
2019-03-15T20:41:04.025Z,100218.88
2019-03-15T20:43:35.519Z,100230.36
2019-03-15T20:46:05.060Z,100245.08
2019-03-15T20:48:41.848Z,100234.85
2019-03-15T20:51:14.259Z,100249.84
2019-03-15T20:53:46.082Z,100249.06
2019-03-15T20:56:25.459Z,100244.79
2019-03-15T20:58:55.204Z,100244.30
2019-03-15T21:01:24.431Z,100246.00
2019-03-15T21:03:56.164Z,100246.41
2019-03-15T21:06:22.783Z,100257.66
2019-03-15T21:08:51.846Z,100252.66
2019-03-15T21:11:20.900Z,100246.85
2019-03-15T21:13:50.377Z,100252.17
2019-03-15T21:16:19.769Z,100262.82
2019-03-15T21:18:49.226Z,100266.47
2019-03-15T21:21:18.448Z,100275.82
2019-03-15T21:23:47.496Z,100272.34
2019-03-15T21:26:25.502Z,100282.91
2019-03-15T21:28:52.639Z,100294.47
2019-03-15T21:31:21.523Z,100295.59
2019-03-15T21:33:50.428Z,100285.74
2019-03-15T21:36:19.335Z,100284.26
2019-03-15T21:38:48.688Z,100284.32
2019-03-15T21:41:17.082Z,100294.43
2019-03-15T21:43:45.977Z,100286.03
2019-03-15T21:46:14.864Z,100290.52
2019-03-15T21:48:43.766Z,100300.88
2019-03-15T21:51:12.705Z,100302.16
2019-03-15T21:53:41.507Z,100312.00
2019-03-15T21:56:10.430Z,100313.01
2019-03-15T21:58:39.311Z,100319.89
2019-03-15T22:01:08.186Z,100321.75
2019-03-15T22:03:37.059Z,100313.03
2019-03-15T22:06:05.991Z,100310.02
2019-03-15T22:08:34.886Z,100320.33
2019-03-15T22:11:03.776Z,100324.83
2019-03-15T22:13:32.661Z,100319.44
2019-03-15T22:16:01.520Z,100330.59
2019-03-15T22:18:30.414Z,100315.17
2019-03-15T22:20:59.278Z,100328.04
2019-03-15T22:23:28.203Z,100336.91
2019-03-15T22:25:57.082Z,100340.20
2019-03-15T22:28:25.997Z,100341.95
2019-03-15T22:30:54.882Z,100349.78
2019-03-15T22:33:23.751Z,100347.30
2019-03-15T22:35:52.637Z,100361.38
2019-03-15T22:38:26.480Z,100361.22
2019-03-15T22:40:50.409Z,100362.57
2019-03-15T22:43:19.256Z,100371.53
2019-03-15T22:45:48.156Z,100378.41
2019-03-15T22:48:17.021Z,100369.63
2019-03-15T22:50:45.931Z,100372.95
2019-03-15T22:53:14.852Z,100381.05
2019-03-15T22:55:43.715Z,100367.91
2019-03-15T22:58:12.601Z,100367.09
2019-03-15T23:00:41.506Z,100369.89
2019-03-15T23:03:10.424Z,100369.03
2019-03-15T23:05:39.304Z,100373.38
2019-03-15T23:08:08.228Z,100368.83
2019-03-15T23:10:37.079Z,100367.84
2019-03-15T23:13:05.986Z,100369.28
2019-03-15T23:15:34.899Z,100361.67
2019-03-15T23:18:03.940Z,100371.55
2019-03-15T23:20:32.803Z,100370.23
2019-03-15T23:23:01.731Z,100376.29
2019-03-15T23:25:30.701Z,100383.18
2019-03-15T23:27:59.615Z,100397.91
2019-03-15T23:30:28.475Z,100388.28
2019-03-15T23:32:57.335Z,100385.02
2019-03-15T23:35:26.206Z,100382.60
2019-03-15T23:37:55.100Z,100374.36
2019-03-15T23:40:24.008Z,100380.04
2019-03-15T23:42:52.871Z,100379.98
2019-03-15T23:45:21.736Z,100378.50
2019-03-15T23:47:50.641Z,100384.04
2019-03-15T23:50:19.528Z,100393.55
2019-03-15T23:52:48.428Z,100386.11
2019-03-15T23:55:17.311Z,100387.30
2019-03-15T23:57:46.175Z,100377.52
